sensor_id;sensor_type;location;lat;lon;timestamp;pressure;altitude;pressure_sealevel;temperature
73894;BMP280;62699;50.534;12.784;2023-11-19T00:04:40;96104.75;;;4.08
73894;BMP280;62699;50.534;12.784;2023-11-19T00:09:40;96081.81;;;4.10
73894;BMP280;62699;50.534;12.784;2023-11-19T00:14:41;96073.06;;;4.10
73894;BMP280;62699;50.534;12.784;2023-11-19T00:19:41;96077.22;;;4.11
73894;BMP280;62699;50.534;12.784;2023-11-19T00:24:41;96075.28;;;4.11
73894;BMP280;62699;50.534;12.784;2023-11-19T00:29:42;96083.66;;;4.19
73894;BMP280;62699;50.534;12.784;2023-11-19T00:34:45;96063.38;;;4.21
73894;BMP280;62699;50.534;12.784;2023-11-19T00:39:47;96064.56;;;4.20
73894;BMP280;62699;50.534;12.784;2023-11-19T00:44:48;96047.09;;;4.19
73894;BMP280;62699;50.534;12.784;2023-11-19T00:49:48;96032.38;;;4.09
73894;BMP280;62699;50.534;12.784;2023-11-19T00:54:49;96022.91;;;4.08
73894;BMP280;62699;50.534;12.784;2023-11-19T00:59:49;96041.00;;;4.04
73894;BMP280;62699;50.534;12.784;2023-11-19T01:04:49;96034.50;;;4.05
73894;BMP280;62699;50.534;12.784;2023-11-19T01:09:50;96036.84;;;4.03
73894;BMP280;62699;50.534;12.784;2023-11-19T01:14:50;96025.31;;;4.06
73894;BMP280;62699;50.534;12.784;2023-11-19T01:19:51;96022.34;;;4.04
73894;BMP280;62699;50.534;12.784;2023-11-19T01:24:51;96034.78;;;3.98
73894;BMP280;62699;50.534;12.784;2023-11-19T01:29:52;96026.88;;;3.89
73894;BMP280;62699;50.534;12.784;2023-11-19T01:34:52;95996.28;;;3.85
73894;BMP280;62699;50.534;12.784;2023-11-19T01:39:53;95978.53;;;3.81
73894;BMP280;62699;50.534;12.784;2023-11-19T01:45:00;95991.94;;;3.87
73894;BMP280;62699;50.534;12.784;2023-11-19T01:50:01;95973.63;;;3.89
73894;BMP280;62699;50.534;12.784;2023-11-19T01:55:07;95962.63;;;3.96
73894;BMP280;62699;50.534;12.784;2023-11-19T02:00:10;95956.28;;;3.94
73894;BMP280;62699;50.534;12.784;2023-11-19T02:05:14;95945.16;;;3.95
73894;BMP280;62699;50.534;12.784;2023-11-19T02:10:14;95943.44;;;3.92
73894;BMP280;62699;50.534;12.784;2023-11-19T02:15:16;95911.75;;;3.94
73894;BMP280;62699;50.534;12.784;2023-11-19T02:20:20;95913.69;;;3.94
73894;BMP280;62699;50.534;12.784;2023-11-19T02:25:26;95904.38;;;3.89
73894;BMP280;62699;50.534;12.784;2023-11-19T02:30:30;95898.50;;;3.85
73894;BMP280;62699;50.534;12.784;2023-11-19T02:35:32;95897.31;;;3.86
73894;BMP280;62699;50.534;12.784;2023-11-19T02:40:33;95900.88;;;3.83
73894;BMP280;62699;50.534;12.784;2023-11-19T02:45:34;95886.66;;;3.86
73894;BMP280;62699;50.534;12.784;2023-11-19T02:50:34;95873.25;;;3.95
73894;BMP280;62699;50.534;12.784;2023-11-19T02:55:34;95873.38;;;4.01
73894;BMP280;62699;50.534;12.784;2023-11-19T03:00:39;95868.50;;;3.99
73894;BMP280;62699;50.534;12.784;2023-11-19T03:05:47;95850.13;;;4.01
73894;BMP280;62699;50.534;12.784;2023-11-19T03:10:48;95847.75;;;4.03
73894;BMP280;62699;50.534;12.784;2023-11-19T03:15:49;95831.03;;;4.03
73894;BMP280;62699;50.534;12.784;2023-11-19T03:20:49;95836.38;;;4.03
73894;BMP280;62699;50.534;12.784;2023-11-19T03:25:50;95828.84;;;4.01
73894;BMP280;62699;50.534;12.784;2023-11-19T03:30:50;95798.00;;;4.09
73894;BMP280;62699;50.534;12.784;2023-11-19T03:35:50;95771.63;;;4.11
73894;BMP280;62699;50.534;12.784;2023-11-19T03:40:52;95771.34;;;4.09
73894;BMP280;62699;50.534;12.784;2023-11-19T03:45:52;95757.94;;;4.18
73894;BMP280;62699;50.534;12.784;2023-11-19T03:50:52;95749.03;;;4.21
73894;BMP280;62699;50.534;12.784;2023-11-19T03:55:53;95732.69;;;4.29
73894;BMP280;62699;50.534;12.784;2023-11-19T04:00:53;95723.13;;;4.37
73894;BMP280;62699;50.534;12.784;2023-11-19T04:05:53;95746.91;;;4.40
73894;BMP280;62699;50.534;12.784;2023-11-19T04:10:53;95748.94;;;4.45
73894;BMP280;62699;50.534;12.784;2023-11-19T04:15:54;95750.84;;;4.45
73894;BMP280;62699;50.534;12.784;2023-11-19T04:20:54;95741.09;;;4.42
73894;BMP280;62699;50.534;12.784;2023-11-19T04:25:54;95716.66;;;4.43
73894;BMP280;62699;50.534;12.784;2023-11-19T04:30:56;95725.47;;;4.49
73894;BMP280;62699;50.534;12.784;2023-11-19T04:35:57;95704.72;;;4.53
73894;BMP280;62699;50.534;12.784;2023-11-19T04:40:57;95689.97;;;4.58
73894;BMP280;62699;50.534;12.784;2023-11-19T04:45:58;95670.81;;;4.74
73894;BMP280;62699;50.534;12.784;2023-11-19T04:50:58;95674.53;;;4.82
73894;BMP280;62699;50.534;12.784;2023-11-19T04:55:58;95664.44;;;4.86
73894;BMP280;62699;50.534;12.784;2023-11-19T05:00:59;95657.63;;;4.85
73894;BMP280;62699;50.534;12.784;2023-11-19T05:05:59;95656.66;;;4.88
73894;BMP280;62699;50.534;12.784;2023-11-19T05:10:59;95662.00;;;4.88
73894;BMP280;62699;50.534;12.784;2023-11-19T05:16:00;95688.22;;;4.90
73894;BMP280;62699;50.534;12.784;2023-11-19T05:21:00;95706.41;;;4.91
73894;BMP280;62699;50.534;12.784;2023-11-19T05:26:01;95710.13;;;4.99
73894;BMP280;62699;50.534;12.784;2023-11-19T05:31:01;95701.88;;;4.97
73894;BMP280;62699;50.534;12.784;2023-11-19T05:36:02;95664.63;;;5.09
73894;BMP280;62699;50.534;12.784;2023-11-19T05:41:04;95672.19;;;5.10
73894;BMP280;62699;50.534;12.784;2023-11-19T05:46:05;95668.50;;;5.28
73894;BMP280;62699;50.534;12.784;2023-11-19T05:51:05;95677.13;;;5.43
73894;BMP280;62699;50.534;12.784;2023-11-19T05:56:06;95662.91;;;5.52
73894;BMP280;62699;50.534;12.784;2023-11-19T06:01:09;95637.41;;;5.51
73894;BMP280;62699;50.534;12.784;2023-11-19T06:06:09;95649.88;;;5.59
73894;BMP280;62699;50.534;12.784;2023-11-19T06:11:10;95657.47;;;5.66
73894;BMP280;62699;50.534;12.784;2023-11-19T06:16:14;95663.75;;;5.63
73894;BMP280;62699;50.534;12.784;2023-11-19T06:21:15;95658.03;;;5.50
73894;BMP280;62699;50.534;12.784;2023-11-19T06:26:16;95654.88;;;5.46
73894;BMP280;62699;50.534;12.784;2023-11-19T06:31:16;95658.72;;;5.45
73894;BMP280;62699;50.534;12.784;2023-11-19T06:36:16;95656.09;;;5.51
73894;BMP280;62699;50.534;12.784;2023-11-19T06:41:17;95656.19;;;5.56
73894;BMP280;62699;50.534;12.784;2023-11-19T06:46:18;95644.22;;;5.77
73894;BMP280;62699;50.534;12.784;2023-11-19T06:51:18;95659.44;;;6.03
73894;BMP280;62699;50.534;12.784;2023-11-19T06:56:23;95681.91;;;6.22
73894;BMP280;62699;50.534;12.784;2023-11-19T07:01:23;95679.38;;;6.39
73894;BMP280;62699;50.534;12.784;2023-11-19T07:06:23;95671.59;;;6.89
73894;BMP280;62699;50.534;12.784;2023-11-19T07:11:24;95673.97;;;6.76
73894;BMP280;62699;50.534;12.784;2023-11-19T07:16:24;95707.53;;;6.77
73894;BMP280;62699;50.534;12.784;2023-11-19T07:21:25;95700.75;;;6.87
73894;BMP280;62699;50.534;12.784;2023-11-19T07:26:26;95691.78;;;6.95
73894;BMP280;62699;50.534;12.784;2023-11-19T07:31:27;95693.50;;;6.93
73894;BMP280;62699;50.534;12.784;2023-11-19T07:36:27;95690.09;;;6.98
73894;BMP280;62699;50.534;12.784;2023-11-19T07:41:28;95707.66;;;7.10
73894;BMP280;62699;50.534;12.784;2023-11-19T07:46:28;95698.44;;;7.22
73894;BMP280;62699;50.534;12.784;2023-11-19T07:51:28;95694.56;;;7.34
73894;BMP280;62699;50.534;12.784;2023-11-19T07:56:29;95679.25;;;7.46
73894;BMP280;62699;50.534;12.784;2023-11-19T08:01:29;95700.69;;;7.46
73894;BMP280;62699;50.534;12.784;2023-11-19T08:06:30;95697.31;;;7.96
73894;BMP280;62699;50.534;12.784;2023-11-19T08:11:30;95691.47;;;8.03
73894;BMP280;62699;50.534;12.784;2023-11-19T08:16:30;95699.53;;;7.97
73894;BMP280;62699;50.534;12.784;2023-11-19T08:21:30;95698.28;;;8.04
73894;BMP280;62699;50.534;12.784;2023-11-19T08:26:31;95708.78;;;8.07
73894;BMP280;62699;50.534;12.784;2023-11-19T08:31:31;95716.81;;;8.29
73894;BMP280;62699;50.534;12.784;2023-11-19T08:36:31;95705.25;;;8.62
73894;BMP280;62699;50.534;12.784;2023-11-19T08:41:32;95704.81;;;9.10
73894;BMP280;62699;50.534;12.784;2023-11-19T08:46:33;95713.13;;;9.12
73894;BMP280;62699;50.534;12.784;2023-11-19T08:51:34;95707.41;;;9.33
73894;BMP280;62699;50.534;12.784;2023-11-19T08:56:34;95709.72;;;9.53
73894;BMP280;62699;50.534;12.784;2023-11-19T09:01:35;95713.25;;;9.72
73894;BMP280;62699;50.534;12.784;2023-11-19T09:06:36;95695.78;;;9.84
73894;BMP280;62699;50.534;12.784;2023-11-19T09:11:36;95712.88;;;9.87
73894;BMP280;62699;50.534;12.784;2023-11-19T09:16:39;95709.16;;;9.95
73894;BMP280;62699;50.534;12.784;2023-11-19T09:21:39;95718.88;;;9.98
73894;BMP280;62699;50.534;12.784;2023-11-19T09:26:40;95719.03;;;9.82
73894;BMP280;62699;50.534;12.784;2023-11-19T09:31:41;95718.47;;;9.89
73894;BMP280;62699;50.534;12.784;2023-11-19T09:36:42;95738.72;;;9.95
73894;BMP280;62699;50.534;12.784;2023-11-19T09:41:44;95741.00;;;9.86
73894;BMP280;62699;50.534;12.784;2023-11-19T09:46:45;95729.59;;;9.74
73894;BMP280;62699;50.534;12.784;2023-11-19T09:51:46;95714.38;;;9.82
73894;BMP280;62699;50.534;12.784;2023-11-19T09:56:47;95725.03;;;9.93
73894;BMP280;62699;50.534;12.784;2023-11-19T10:01:48;95714.19;;;10.04
73894;BMP280;62699;50.534;12.784;2023-11-19T10:06:50;95724.97;;;11.15
73894;BMP280;62699;50.534;12.784;2023-11-19T10:11:51;95724.50;;;11.48
73894;BMP280;62699;50.534;12.784;2023-11-19T10:16:51;95732.16;;;11.44
73894;BMP280;62699;50.534;12.784;2023-11-19T10:21:52;95729.75;;;11.22
73894;BMP280;62699;50.534;12.784;2023-11-19T10:26:52;95724.47;;;11.35
73894;BMP280;62699;50.534;12.784;2023-11-19T10:31:56;95733.47;;;11.19
73894;BMP280;62699;50.534;12.784;2023-11-19T10:36:57;95730.59;;;11.17
73894;BMP280;62699;50.534;12.784;2023-11-19T10:42:14;95739.75;;;11.27
73894;BMP280;62699;50.534;12.784;2023-11-19T10:47:15;95722.06;;;11.63
73894;BMP280;62699;50.534;12.784;2023-11-19T10:52:18;95714.38;;;11.54
73894;BMP280;62699;50.534;12.784;2023-11-19T10:57:21;95715.69;;;11.29
73894;BMP280;62699;50.534;12.784;2023-11-19T11:02:25;95715.56;;;11.02
73894;BMP280;62699;50.534;12.784;2023-11-19T11:07:30;95725.16;;;10.79
73894;BMP280;62699;50.534;12.784;2023-11-19T11:12:35;95714.38;;;10.79
73894;BMP280;62699;50.534;12.784;2023-11-19T11:17:37;95709.38;;;10.89
73894;BMP280;62699;50.534;12.784;2023-11-19T11:22:52;95705.13;;;11.31
73894;BMP280;62699;50.534;12.784;2023-11-19T11:28:08;95689.94;;;11.15
73894;BMP280;62699;50.534;12.784;2023-11-19T11:38:52;95700.72;;;11.15
73894;BMP280;62699;50.534;12.784;2023-11-19T11:43:53;95710.75;;;11.33
73894;BMP280;62699;50.534;12.784;2023-11-19T11:48:57;95697.66;;;11.24
73894;BMP280;62699;50.534;12.784;2023-11-19T11:54:00;95705.47;;;11.27
73894;BMP280;62699;50.534;12.784;2023-11-19T11:59:03;95690.97;;;11.12
73894;BMP280;62699;50.534;12.784;2023-11-19T12:04:09;95682.16;;;10.92
73894;BMP280;62699;50.534;12.784;2023-11-19T12:09:09;95669.28;;;11.04
73894;BMP280;62699;50.534;12.784;2023-11-19T12:14:11;95659.03;;;11.02
73894;BMP280;62699;50.534;12.784;2023-11-19T12:19:12;95665.28;;;11.11
73894;BMP280;62699;50.534;12.784;2023-11-19T12:24:12;95660.75;;;11.19
73894;BMP280;62699;50.534;12.784;2023-11-19T12:29:14;95635.91;;;11.26
73894;BMP280;62699;50.534;12.784;2023-11-19T12:34:14;95635.91;;;11.26
73894;BMP280;62699;50.534;12.784;2023-11-19T12:39:14;95637.63;;;11.42
73894;BMP280;62699;50.534;12.784;2023-11-19T12:44:15;95630.56;;;11.52
73894;BMP280;62699;50.534;12.784;2023-11-19T12:49:15;95625.25;;;11.33
73894;BMP280;62699;50.534;12.784;2023-11-19T12:54:16;95630.06;;;11.22
73894;BMP280;62699;50.534;12.784;2023-11-19T12:59:16;95638.63;;;10.88
73894;BMP280;62699;50.534;12.784;2023-11-19T13:04:17;95646.09;;;10.58
73894;BMP280;62699;50.534;12.784;2023-11-19T13:09:25;95666.09;;;10.44
73894;BMP280;62699;50.534;12.784;2023-11-19T13:14:36;95679.91;;;10.10
73894;BMP280;62699;50.534;12.784;2023-11-19T13:19:42;95693.59;;;9.83
73894;BMP280;62699;50.534;12.784;2023-11-19T13:24:42;95681.75;;;9.67
73894;BMP280;62699;50.534;12.784;2023-11-19T13:29:43;95676.91;;;9.60
73894;BMP280;62699;50.534;12.784;2023-11-19T13:34:46;95680.41;;;9.55
73894;BMP280;62699;50.534;12.784;2023-11-19T13:39:46;95673.16;;;9.39
73894;BMP280;62699;50.534;12.784;2023-11-19T13:44:46;95678.09;;;9.29
73894;BMP280;62699;50.534;12.784;2023-11-19T13:49:47;95682.06;;;9.22
73894;BMP280;62699;50.534;12.784;2023-11-19T13:54:47;95684.03;;;9.16
73894;BMP280;62699;50.534;12.784;2023-11-19T13:59:47;95678.66;;;9.16
73894;BMP280;62699;50.534;12.784;2023-11-19T14:04:48;95676.78;;;9.06
73894;BMP280;62699;50.534;12.784;2023-11-19T14:09:48;95674.41;;;8.91
73894;BMP280;62699;50.534;12.784;2023-11-19T14:14:48;95687.19;;;8.74
73894;BMP280;62699;50.534;12.784;2023-11-19T14:19:49;95690.19;;;8.48
73894;BMP280;62699;50.534;12.784;2023-11-19T14:24:49;95689.75;;;8.27
73894;BMP280;62699;50.534;12.784;2023-11-19T14:29:49;95682.94;;;8.15
73894;BMP280;62699;50.534;12.784;2023-11-19T14:34:54;95677.59;;;7.93
73894;BMP280;62699;50.534;12.784;2023-11-19T14:39:54;95668.34;;;7.72
73894;BMP280;62699;50.534;12.784;2023-11-19T14:44:54;95660.56;;;7.52
73894;BMP280;62699;50.534;12.784;2023-11-19T14:49:58;95677.34;;;7.41
73894;BMP280;62699;50.534;12.784;2023-11-19T14:54:59;95668.78;;;7.26
73894;BMP280;62699;50.534;12.784;2023-11-19T15:00:00;95680.66;;;7.19
73894;BMP280;62699;50.534;12.784;2023-11-19T15:05:01;95670.69;;;7.14
73894;BMP280;62699;50.534;12.784;2023-11-19T15:10:04;95676.00;;;7.03
73894;BMP280;62699;50.534;12.784;2023-11-19T15:15:11;95667.94;;;6.92
73894;BMP280;62699;50.534;12.784;2023-11-19T15:20:15;95667.16;;;6.75
73894;BMP280;62699;50.534;12.784;2023-11-19T15:25:18;95674.84;;;6.56
73894;BMP280;62699;50.534;12.784;2023-11-19T15:30:19;95676.03;;;6.49
73894;BMP280;62699;50.534;12.784;2023-11-19T15:35:20;95678.66;;;6.38
73894;BMP280;62699;50.534;12.784;2023-11-19T15:40:20;95667.47;;;6.40
73894;BMP280;62699;50.534;12.784;2023-11-19T15:45:21;95668.44;;;6.42
73894;BMP280;62699;50.534;12.784;2023-11-19T15:50:21;95654.72;;;6.72
73894;BMP280;62699;50.534;12.784;2023-11-19T15:55:21;95655.41;;;6.55
73894;BMP280;62699;50.534;12.784;2023-11-19T16:00:22;95653.44;;;6.50
73894;BMP280;62699;50.534;12.784;2023-11-19T16:05:22;95649.78;;;6.53
73894;BMP280;62699;50.534;12.784;2023-11-19T16:10:24;95658.50;;;6.43
73894;BMP280;62699;50.534;12.784;2023-11-19T16:15:24;95670.34;;;6.36
73894;BMP280;62699;50.534;12.784;2023-11-19T16:20:24;95672.84;;;6.45
73894;BMP280;62699;50.534;12.784;2023-11-19T16:25:25;95672.19;;;6.56
73894;BMP280;62699;50.534;12.784;2023-11-19T16:30:25;95680.38;;;6.47
73894;BMP280;62699;50.534;12.784;2023-11-19T16:35:26;95685.19;;;6.80
73894;BMP280;62699;50.534;12.784;2023-11-19T16:40:27;95693.88;;;6.75
73894;BMP280;62699;50.534;12.784;2023-11-19T16:45:27;95696.66;;;6.97
73894;BMP280;62699;50.534;12.784;2023-11-19T16:50:27;95675.31;;;7.19
73894;BMP280;62699;50.534;12.784;2023-11-19T16:55:30;95673.38;;;7.20
73894;BMP280;62699;50.534;12.784;2023-11-19T17:00:30;95698.72;;;7.19
73894;BMP280;62699;50.534;12.784;2023-11-19T17:05:31;95692.41;;;7.55
73894;BMP280;62699;50.534;12.784;2023-11-19T17:10:34;95680.75;;;7.58
73894;BMP280;62699;50.534;12.784;2023-11-19T17:15:35;95680.00;;;7.58
73894;BMP280;62699;50.534;12.784;2023-11-19T17:20:35;95682.69;;;7.58
73894;BMP280;62699;50.534;12.784;2023-11-19T17:25:37;95705.84;;;7.72
73894;BMP280;62699;50.534;12.784;2023-11-19T17:30:38;95695.38;;;7.68
73894;BMP280;62699;50.534;12.784;2023-11-19T17:35:39;95698.03;;;7.57
73894;BMP280;62699;50.534;12.784;2023-11-19T17:40:40;95702.41;;;7.55
73894;BMP280;62699;50.534;12.784;2023-11-19T17:45:40;95693.91;;;7.50
73894;BMP280;62699;50.534;12.784;2023-11-19T17:50:40;95691.22;;;7.50
73894;BMP280;62699;50.534;12.784;2023-11-19T17:55:41;95690.00;;;7.52
73894;BMP280;62699;50.534;12.784;2023-11-19T18:00:41;95684.91;;;7.59
73894;BMP280;62699;50.534;12.784;2023-11-19T18:05:41;95683.19;;;7.50
73894;BMP280;62699;50.534;12.784;2023-11-19T18:10:41;95685.59;;;7.48
73894;BMP280;62699;50.534;12.784;2023-11-19T18:15:43;95688.81;;;7.75
73894;BMP280;62699;50.534;12.784;2023-11-19T18:20:43;95701.00;;;7.98
73894;BMP280;62699;50.534;12.784;2023-11-19T18:25:43;95702.41;;;8.21
73894;BMP280;62699;50.534;12.784;2023-11-19T18:30:48;95701.44;;;8.24
73894;BMP280;62699;50.534;12.784;2023-11-19T18:35:49;95702.66;;;8.40
73894;BMP280;62699;50.534;12.784;2023-11-19T18:40:49;95705.47;;;8.64
73894;BMP280;62699;50.534;12.784;2023-11-19T18:45:50;95705.53;;;8.48
73894;BMP280;62699;50.534;12.784;2023-11-19T18:50:51;95717.94;;;8.56
73894;BMP280;62699;50.534;12.784;2023-11-19T18:55:52;95709.16;;;8.56
73894;BMP280;62699;50.534;12.784;2023-11-19T19:00:52;95700.63;;;8.68
73894;BMP280;62699;50.534;12.784;2023-11-19T19:05:54;95703.00;;;8.83
73894;BMP280;62699;50.534;12.784;2023-11-19T19:10:54;95705.22;;;8.79
73894;BMP280;62699;50.534;12.784;2023-11-19T19:15:54;95694.47;;;8.79
73894;BMP280;62699;50.534;12.784;2023-11-19T19:20:55;95711.84;;;8.61
73894;BMP280;62699;50.534;12.784;2023-11-19T19:25:55;95711.09;;;8.72
73894;BMP280;62699;50.534;12.784;2023-11-19T19:30:55;95706.91;;;8.82
73894;BMP280;62699;50.534;12.784;2023-11-19T19:35:56;95712.03;;;8.80
73894;BMP280;62699;50.534;12.784;2023-11-19T19:40:58;95717.13;;;8.89
73894;BMP280;62699;50.534;12.784;2023-11-19T19:46:04;95713.72;;;8.83
73894;BMP280;62699;50.534;12.784;2023-11-19T19:51:05;95720.03;;;8.91
73894;BMP280;62699;50.534;12.784;2023-11-19T19:56:07;95731.25;;;8.95
73894;BMP280;62699;50.534;12.784;2023-11-19T20:01:07;95718.09;;;8.92
73894;BMP280;62699;50.534;12.784;2023-11-19T20:06:08;95709.53;;;8.93
73894;BMP280;62699;50.534;12.784;2023-11-19T20:11:11;95713.69;;;8.94
73894;BMP280;62699;50.534;12.784;2023-11-19T20:16:12;95716.13;;;8.98
73894;BMP280;62699;50.534;12.784;2023-11-19T20:21:13;95710.25;;;8.99
73894;BMP280;62699;50.534;12.784;2023-11-19T20:26:13;95717.34;;;8.91
73894;BMP280;62699;50.534;12.784;2023-11-19T20:31:18;95707.06;;;8.95
73894;BMP280;62699;50.534;12.784;2023-11-19T20:36:18;95714.63;;;9.02
73894;BMP280;62699;50.534;12.784;2023-11-19T20:41:19;95705.81;;;9.07
73894;BMP280;62699;50.534;12.784;2023-11-19T20:46:20;95697.06;;;9.01
73894;BMP280;62699;50.534;12.784;2023-11-19T20:51:20;95707.03;;;9.06
73894;BMP280;62699;50.534;12.784;2023-11-19T20:56:20;95711.97;;;8.91
73894;BMP280;62699;50.534;12.784;2023-11-19T21:01:21;95709.22;;;9.13
73894;BMP280;62699;50.534;12.784;2023-11-19T21:06:21;95708.22;;;9.16
73894;BMP280;62699;50.534;12.784;2023-11-19T21:11:23;95701.66;;;9.06
73894;BMP280;62699;50.534;12.784;2023-11-19T21:16:23;95707.34;;;8.92
73894;BMP280;62699;50.534;12.784;2023-11-19T21:21:26;95697.31;;;8.98
73894;BMP280;62699;50.534;12.784;2023-11-19T21:26:26;95694.84;;;9.05
73894;BMP280;62699;50.534;12.784;2023-11-19T21:31:26;95702.16;;;9.05
73894;BMP280;62699;50.534;12.784;2023-11-19T21:36:27;95709.50;;;9.04
73894;BMP280;62699;50.534;12.784;2023-11-19T21:41:27;95700.75;;;8.98
73894;BMP280;62699;50.534;12.784;2023-11-19T21:46:27;95693.44;;;8.93
73894;BMP280;62699;50.534;12.784;2023-11-19T21:51:28;95695.28;;;9.09
73894;BMP280;62699;50.534;12.784;2023-11-19T21:56:28;95692.91;;;9.00
73894;BMP280;62699;50.534;12.784;2023-11-19T22:01:28;95690.94;;;9.06
73894;BMP280;62699;50.534;12.784;2023-11-19T22:06:28;95690.94;;;9.06
73894;BMP280;62699;50.534;12.784;2023-11-19T22:11:29;95673.13;;;9.03
73894;BMP280;62699;50.534;12.784;2023-11-19T22:16:30;95677.00;;;9.08
73894;BMP280;62699;50.534;12.784;2023-11-19T22:21:30;95691.19;;;9.08
73894;BMP280;62699;50.534;12.784;2023-11-19T22:26:30;95684.31;;;9.13
73894;BMP280;62699;50.534;12.784;2023-11-19T22:31:32;95691.66;;;9.07
73894;BMP280;62699;50.534;12.784;2023-11-19T22:36:33;95692.84;;;9.11
73894;BMP280;62699;50.534;12.784;2023-11-19T22:41:34;95718.03;;;9.08
73894;BMP280;62699;50.534;12.784;2023-11-19T22:46:34;95713.91;;;8.96
73894;BMP280;62699;50.534;12.784;2023-11-19T22:51:35;95722.28;;;8.76
73894;BMP280;62699;50.534;12.784;2023-11-19T22:56:35;95734.06;;;8.56
73894;BMP280;62699;50.534;12.784;2023-11-19T23:01:36;95715.56;;;8.42
73894;BMP280;62699;50.534;12.784;2023-11-19T23:06:37;95721.91;;;8.27
73894;BMP280;62699;50.534;12.784;2023-11-19T23:11:37;95724.84;;;8.18
73894;BMP280;62699;50.534;12.784;2023-11-19T23:16:37;95719.50;;;8.13
73894;BMP280;62699;50.534;12.784;2023-11-19T23:21:38;95703.91;;;8.00
73894;BMP280;62699;50.534;12.784;2023-11-19T23:26:43;95691.72;;;7.88
73894;BMP280;62699;50.534;12.784;2023-11-19T23:31:44;95700.47;;;7.94
73894;BMP280;62699;50.534;12.784;2023-11-19T23:36:45;95687.81;;;7.94
73894;BMP280;62699;50.534;12.784;2023-11-19T23:41:45;95684.91;;;7.98
73894;BMP280;62699;50.534;12.784;2023-11-19T23:46:47;95667.09;;;7.95
73894;BMP280;62699;50.534;12.784;2023-11-19T23:51:47;95671.50;;;7.98
73894;BMP280;62699;50.534;12.784;2023-11-19T23:56:47;95660.28;;;8.00
